Del Valle, TX (78617)

6:33 AM CDT on July 07, 2015 (GMT -0500)
Berdoll Farms | | Change Station
CLOSE
Current Station
Personal Weather Station
Location: Texas, TX
Elevation: 489 ft
Nearby Weather Stations

Elev 489 ft 30.17 °N, 97.61 °W | Updated 5 minutes ago

Mostly Cloudy
Mostly Cloudy
75.3 °F
Feels Like 75 °F
N
3.1
Wind Variable Wind from South

Today
High -- | Low -- °F
--% Chance of Precip.
Yesterday
High -- | Low -- °F
Precip. -- in
6:35 AM 8:35 PM
Waning Gibbous, 66% visible
Pressure 29.94 in
Visibility 9.0 miles
Clouds Scattered Clouds 1700 ft
Mostly Cloudy 20000 ft
Heat Index 75 °F
Dew Point 70 °F
Humidity 85%
Rainfall 0.00 in
Snow Depth Not available.
UV 0 out of 12
Pollen 2.30 out of 12
Air Quality Not available.
Flu Activity Not available.
METAR KAUS 071053Z 17008KT 9SM SCT017 BKN200 25/24 A2998 RMK AO2 SLP139 T02500239

More Conditions Fewer Conditions

Pressure 29.94 in
Visibility 9.0 miles
Clouds Scattered Clouds 1700 ft
Mostly Cloudy 20000 ft
Heat Index 75 °F
Dew Point 70 °F
Humidity 85%
Rainfall 0.00 in
Snow Depth Not available.
UV 0 out of 12
Pollen 2.30 out of 12
Air Quality Not available.
Flu Activity Not available.
METAR KAUS 071053Z 17008KT 9SM SCT017 BKN200 25/24 A2998 RMK AO2 SLP139 T02500239

More Conditions Fewer Conditions

10-Day Weather Forecast

×

Almanac

Astronomy

Jul. 07, 2015 Rise Set
Actual Time
Civil Twilight
Nautical Twilight
Astronomical Twilight
Moon
Length of Visible Light
Length of Day
Tomorrow will be .
, % of the Moon is Illuminated

Today's Extremes

State Highs State Lows

Community

WunderPhotos

Upload Photos

1,835,768 photos uploaded!

WunderBlogs® & News

Nearby

Air Quality

  Air Quality AQ Index Pollutant
Not available.

Snow Depth

Station Depth Elevation

Earthquake Activity

City Distance Mag. Time & Date
Minimum magnitude displayed is 2.5.

Coastal Water Temperatures

Place Temperature

Stations

Nearby Weather Stations

Station Location Temp. Windchill Dew Point Humidity Wind Precip. Elev Updated Type